Time;durP1;ratioP1;P1;durP2;ratioP2;P2;SDS_P1;SDS_P2;PMS_P1;PMS_P2;Temp;Humidity;BMP_temperature;BMP_pressure;BME280_temperature;BME280_humidity;BME280_pressure;Samples;Min_cycle;Max_cycle;Signal;HPM_P1;HPM_P2
2021/01/05 00:00:35;;;;;;;46.25;15.45;;;;;;;-0.27;96.62;100014.38;3469061;28;20057;-49
2021/01/05 00:02:18;;;;;;;38.40;13.93;;;;;;;-0.28;96.59;100010.09;3469784;28;20138;-46
2021/01/05 00:04:00;;;;;;;66.97;15.77;;;;;;;-0.28;96.45;100010.09;3467911;28;20045;-47
2021/01/05 00:05:42;;;;;;;40.20;14.30;;;;;;;-0.29;96.48;100015.97;3470161;28;20081;-47
2021/01/05 00:07:24;;;;;;;54.80;15.77;;;;;;;-0.30;96.38;100024.41;3467845;28;20053;-47
2021/01/05 00:09:06;;;;;;;40.42;14.18;;;;;;;-0.30;96.24;100019.31;3468109;28;20086;-46
2021/01/05 00:10:48;;;;;;;49.10;14.18;;;;;;;-0.30;96.55;100030.38;3470595;28;20140;-47
2021/01/05 00:12:29;;;;;;;62.17;17.45;;;;;;;-0.30;96.25;100032.06;3467672;28;20052;-46
2021/01/05 00:14:11;;;;;;;50.60;15.18;;;;;;;-0.31;96.33;100025.19;3468498;28;20056;-46
2021/01/05 00:15:53;;;;;;;62.22;17.17;;;;;;;-0.31;96.52;100022.63;3456910;28;20427;-47
2021/01/05 00:17:36;;;;;;;50.90;14.30;;;;;;;-0.30;96.23;100027.81;3464806;28;20148;-47
2021/01/05 00:19:18;;;;;;;60.78;15.93;;;;;;;-0.28;96.35;100025.38;3467676;28;20056;-48
2021/01/05 00:21:00;;;;;;;59.70;17.88;;;;;;;-0.31;96.35;100031.16;3456164;28;20507;-47
2021/01/05 00:22:42;;;;;;;59.08;18.38;;;;;;;-0.30;96.51;100034.59;3465105;28;20053;-47
2021/01/05 00:24:24;;;;;;;71.03;17.83;;;;;;;-0.33;96.44;100031.06;3469484;28;20084;-46
2021/01/05 00:26:05;;;;;;;84.50;18.25;;;;;;;-0.33;96.21;100036.16;3469365;28;20061;-45
2021/01/05 00:27:47;;;;;;;62.28;17.90;;;;;;;-0.30;96.38;100032.06;3468071;28;20053;-45
2021/01/05 00:29:29;;;;;;;60.72;17.50;;;;;;;-0.30;96.29;100026.97;3469787;28;20533;-47
2021/01/05 00:31:11;;;;;;;67.15;20.05;;;;;;;-0.30;96.24;100024.41;3467619;28;20123;-47
2021/01/05 00:32:55;;;;;;;73.53;18.38;;;;;;;-0.30;96.62;100022.72;3466622;28;20050;-46
2021/01/05 00:34:42;;;;;;;68.20;16.10;;;;;;;-0.30;96.47;100012.53;3469473;28;20545;-46
2021/01/05 00:36:24;;;;;;;57.58;16.40;;;;;;;-0.29;96.37;100018.50;3467480;28;20529;-47
2021/01/05 00:38:08;;;;;;;88.20;19.40;;;;;;;-0.31;96.24;100017.53;3467400;28;20041;-45
2021/01/05 00:39:49;;;;;;;84.25;19.88;;;;;;;-0.33;96.19;100013.22;3469520;28;20049;-46
2021/01/05 00:41:32;;;;;;;53.17;16.75;;;;;;;-0.38;96.28;100014.63;3467246;28;20049;-46
2021/01/05 00:43:13;;;;;;;94.28;20.70;;;;;;;-0.39;96.35;100017.06;3466228;28;20052;-46
2021/01/05 00:44:55;;;;;;;52.28;17.00;;;;;;;-0.41;96.09;100019.50;3468689;28;20506;-48
2021/01/05 00:46:37;;;;;;;98.00;20.33;;;;;;;-0.43;96.21;100021.09;3468237;28;20107;-45
2021/01/05 00:48:19;;;;;;;78.07;18.85;;;;;;;-0.45;95.95;100022.63;3469169;28;20064;-48
2021/01/05 00:50:03;;;;;;;66.93;20.65;;;;;;;-0.45;96.02;100024.31;3468159;28;20049;-48
2021/01/05 00:51:45;;;;;;;52.13;17.05;;;;;;;-0.45;96.19;100025.19;3468660;28;20045;-47
2021/01/05 00:53:27;;;;;;;66.13;20.85;;;;;;;-0.44;96.41;100021.00;3469721;28;20053;-46
2021/01/05 00:55:11;;;;;;;71.25;19.33;;;;;;;-0.43;96.62;100020.19;3468032;28;20046;-46
2021/01/05 00:57:04;;;;;;;;;;;;;;;-0.41;96.48;100024.63;3467165;28;20049;-47
2021/01/05 00:58:46;;;;;;;58.28;18.23;;;;;;;-0.39;96.51;100025.59;3469471;28;20402;-46
2021/01/05 01:00:28;;;;;;;69.63;20.52;;;;;;;-0.39;96.50;100025.59;3467820;28;20061;-46
2021/01/05 01:02:13;;;;;;;64.63;19.92;;;;;;;-0.40;96.23;100012.75;3467552;28;20132;-50
2021/01/05 01:03:56;;;;;;;64.05;19.13;;;;;;;-0.41;96.49;100021.16;3469574;28;20430;-45
2021/01/05 01:05:37;;;;;;;69.32;18.98;;;;;;;-0.44;96.34;100006.56;3467114;28;20060;-48
2021/01/05 01:07:19;;;;;;;95.72;22.17;;;;;;;-0.46;96.13;100008.16;3467772;28;20048;-45
2021/01/05 01:09:01;;;;;;;71.05;20.75;;;;;;;-0.48;95.94;100001.16;3469223;28;20503;-45
2021/01/05 01:10:42;;;;;;;72.22;20.38;;;;;;;-0.50;96.23;100005.28;3467861;28;20054;-48
2021/01/05 01:12:42;;;;;;;64.25;17.88;;;;;;;-0.53;96.10;100008.56;3467115;28;20064;-48
2021/01/05 01:14:27;;;;;;;105.75;23.13;;;;;;;-0.58;96.17;100003.16;3470130;28;20125;-44
2021/01/05 01:16:09;;;;;;;69.95;21.60;;;;;;;-0.54;96.26;100001.69;3458772;28;20057;-45
2021/01/05 01:17:51;;;;;;;82.53;21.67;;;;;;;-0.54;95.92;100001.69;3460746;28;20048;-47
2021/01/05 01:19:33;;;;;;;82.18;21.05;;;;;;;-0.55;96.12;100010.13;3469293;28;20088;-45
2021/01/05 01:21:15;;;;;;;67.03;21.55;;;;;;;-0.55;96.40;100005.91;3466737;28;20053;-45
2021/01/05 01:22:57;;;;;;;67.38;18.45;;;;;;;-0.57;96.22;100007.47;3467310;28;20056;-46
2021/01/05 01:24:39;;;;;;;68.60;19.58;;;;;;;-0.58;96.19;100007.38;3469867;28;20061;-49
2021/01/05 01:26:32;;;;;;;55.50;19.08;;;;;;;-0.58;95.93;100000.59;3466904;28;20057;-48
2021/01/05 01:28:14;;;;;;;72.35;18.92;;;;;;;-0.57;96.19;99997.28;3466836;28;20076;-50
2021/01/05 01:29:55;;;;;;;86.95;22.10;;;;;;;-0.58;95.75;99994.63;3469598;28;20134;-47
2021/01/05 01:31:37;;;;;;;66.57;18.70;;;;;;;-0.60;95.92;100001.31;3466997;28;20073;-48
2021/01/05 01:33:38;;;;;;;56.60;17.65;;;;;;;-0.61;95.97;99997.84;3468614;28;20434;-48
2021/01/05 01:35:20;;;;;;;73.25;20.80;;;;;;;-0.63;95.82;100003.66;3468316;28;20110;-45
2021/01/05 01:37:07;;;;;;;73.88;21.08;;;;;;;-0.64;95.65;100000.22;3466657;28;20203;-45
2021/01/05 01:38:49;;;;;;;61.15;18.88;;;;;;;-0.65;95.95;99998.47;3468009;28;20100;-49
2021/01/05 01:40:34;;;;;;;93.53;21.20;;;;;;;-0.65;96.16;99992.50;3468946;28;20060;-48
2021/01/05 01:42:20;;;;;;;86.35;22.98;;;;;;;-0.65;96.05;99995.03;3465155;28;20045;-45
2021/01/05 01:44:03;;;;;;;81.03;22.33;;;;;;;-0.64;96.09;100004.41;3468177;28;20132;-47
2021/01/05 01:45:44;;;;;;;68.28;22.08;;;;;;;-0.63;96.09;99999.44;3467275;28;20547;-49
2021/01/05 01:47:30;;;;;;;86.45;22.58;;;;;;;-0.62;96.07;99995.25;3467688;28;20061;-45
2021/01/05 01:49:13;;;;;;;85.95;24.50;;;;;;;-0.63;95.78;100001.97;3468826;28;20049;-45
2021/01/05 01:50:55;;;;;;;76.75;20.90;;;;;;;-0.63;96.07;99999.44;3467073;28;20053;-45
2021/01/05 01:53:09;;;;;;;73.53;22.27;;;;;;;-0.61;96.14;100002.06;3466603;28;20320;-45
2021/01/05 01:55:16;;;;;;;76.00;20.60;;;;;;;-0.58;96.22;99994.63;3455718;28;20450;-45
2021/01/05 01:57:24;;;;;;;73.20;21.63;;;;;;;-0.60;95.92;99997.09;3469032;28;20053;-47
2021/01/05 01:59:23;;;;;;;67.05;19.90;;;;;;;-0.61;96.24;99994.44;3467342;28;20050;-48
2021/01/05 02:01:22;;;;;;;82.50;22.05;;;;;;;-0.62;96.21;99990.13;3467168;28;20053;-45
2021/01/05 02:03:33;;;;;;;73.50;20.65;;;;;;;-0.62;96.11;99998.66;3467937;28;20053;-45
2021/01/05 02:05:18;;;;;;;80.53;22.15;;;;;;;-0.61;96.26;99989.34;3433534;28;20054;-47
2021/01/05 02:07:36;;;;;;;69.07;18.90;;;;;;;-0.63;96.25;99989.25;3465252;28;20113;-48
2021/01/05 02:09:31;;;;;;;64.28;22.55;;;;;;;-0.62;96.08;99988.47;3466739;28;20122;-44
2021/01/05 02:11:37;;;;;;;66.03;20.50;;;;;;;-0.62;95.92;99983.38;3467578;28;20060;-45
2021/01/05 02:13:38;;;;;;;73.72;21.50;;;;;;;-0.62;95.91;99983.38;3454924;28;20510;-44
2021/01/05 02:15:32;;;;;;;70.78;20.13;;;;;;;-0.64;96.11;99982.41;3465672;28;20057;-45
2021/01/05 02:17:38;;;;;;;71.65;21.27;;;;;;;-0.61;96.27;99976.59;3466887;28;20041;-45
2021/01/05 02:19:31;;;;;;;55.67;18.92;;;;;;;-0.62;96.16;99978.28;3467533;28;20506;-48
2021/01/05 02:21:23;;;;;;;60.42;20.38;;;;;;;-0.63;96.18;99973.09;3468246;28;20045;-47
2021/01/05 02:23:16;;;;;;;77.70;20.27;;;;;;;-0.64;95.82;99979.84;3466577;28;20052;-45
2021/01/05 02:25:05;;;;;;;64.32;20.05;;;;;;;-0.66;95.69;99981.44;3466999;28;20513;-48
2021/01/05 02:26:54;;;;;;;87.97;21.90;;;;;;;-0.67;95.65;99971.13;3468931;28;20128;-49
2021/01/05 02:28:43;;;;;;;81.72;22.23;;;;;;;-0.69;95.96;99965.94;3467237;28;20080;-45
2021/01/05 02:30:28;;;;;;;78.43;20.65;;;;;;;-0.72;95.70;99971.69;3466645;28;20499;-45
2021/01/05 02:32:18;;;;;;;72.30;21.95;;;;;;;-0.75;95.63;99974.09;3468534;28;20050;-45
2021/01/05 02:34:05;;;;;;;72.85;22.45;;;;;;;-0.77;95.83;99967.97;3466408;28;20056;-47
2021/01/05 02:36:10;;;;;;;78.82;20.98;;;;;;;-0.78;96.07;99966.25;3466406;28;20054;-45
2021/01/05 02:38:04;;;;;;;92.68;21.48;;;;;;;-0.79;95.87;99969.56;3468418;28;20148;-47
2021/01/05 02:40:33;;;;;;;87.78;24.40;;;;;;;-0.79;95.81;99959.38;3467320;28;20511;-45
2021/01/05 02:42:44;;;;;;;77.10;23.63;;;;;;;-0.81;96.22;99958.41;3437417;28;20050;-45
2021/01/05 02:44:37;;;;;;;80.32;23.50;;;;;;;-0.82;96.17;99958.28;3437591;28;20619;-45
2021/01/05 02:46:38;;;;;;;88.35;22.73;;;;;;;-0.84;95.81;99949.69;3436631;28;20551;-48
2021/01/05 02:48:47;;;;;;;84.88;22.77;;;;;;;-0.87;95.77;99947.84;3464917;28;20062;-47
2021/01/05 02:51:01;;;;;;;74.43;22.70;;;;;;;-0.88;96.19;99946.06;3455041;28;20084;-44
2021/01/05 02:53:16;;;;;;;79.55;21.45;;;;;;;-0.92;96.08;99944.97;3467460;28;20136;-47
2021/01/05 02:55:31;;;;;;;82.80;21.10;;;;;;;-0.91;96.03;99938.22;3466285;28;20095;-45
2021/01/05 02:57:29;;;;;;;90.18;24.92;;;;;;;-0.90;96.46;99934.91;3443863;28;20045;-46
2021/01/05 02:59:45;;;;;;;78.72;22.45;;;;;;;-0.87;96.25;99931.66;3469281;28;20045;-46
2021/01/05 03:02:18;;;;;;;102.97;27.55;;;;;;;-0.88;96.37;99930.78;3457125;28;20057;-48
2021/01/05 03:03:59;;;;;;;68.72;21.27;;;;;;;-0.85;96.38;99923.34;3457547;28;20060;-47
2021/01/05 03:05:45;;;;;;;86.93;24.83;;;;;;;-0.84;96.57;99924.22;3467454;28;20060;-46
2021/01/05 03:07:28;;;;;;;87.00;22.63;;;;;;;-0.83;96.62;99919.22;3468371;28;20077;-45
2021/01/05 03:09:52;;;;;;;98.57;24.77;;;;;;;-0.81;96.22;99917.66;3470572;28;20119;-45
2021/01/05 03:11:48;;;;;;;97.38;26.75;;;;;;;-0.80;96.21;99908.31;3469396;28;20084;-46
2021/01/05 03:13:49;;;;;;;108.00;24.55;;;;;;;-0.80;96.40;99916.88;3468740;28;20077;-47
2021/01/05 03:15:41;;;;;;;93.20;24.67;;;;;;;-0.80;96.58;99913.41;3468473;28;20049;-47
2021/01/05 03:17:33;;;;;;;82.50;24.77;;;;;;;-0.81;96.40;99911.69;3470120;28;20083;-47
2021/01/05 03:19:26;;;;;;;88.30;25.35;;;;;;;-0.81;96.49;99920.19;3469301;28;20049;-47
2021/01/05 03:21:21;;;;;;;96.60;26.48;;;;;;;-0.79;96.51;99920.28;3468841;28;20053;-47
2021/01/05 03:23:07;;;;;;;85.22;23.83;;;;;;;-0.79;96.48;99910.97;3468418;28;20529;-47
2021/01/05 03:24:49;;;;;;;83.97;24.15;;;;;;;-0.78;96.37;99911.88;3470163;28;20150;-47
2021/01/05 03:26:36;;;;;;;75.22;22.95;;;;;;;-0.80;96.31;99906.69;3468596;28;20053;-45
2021/01/05 03:28:23;;;;;;;91.80;25.63;;;;;;;-0.79;96.42;99908.44;3469617;28;20049;-47
2021/01/05 03:30:08;;;;;;;75.75;22.40;;;;;;;-0.79;96.32;99912.66;3469670;28;20057;-47
2021/01/05 03:31:52;;;;;;;73.70;21.95;;;;;;;-0.80;96.56;99913.41;3468501;28;20517;-47
2021/01/05 03:33:34;;;;;;;;;;;;;;;-0.81;96.52;99915.09;3470522;28;20506;-47
2021/01/05 03:35:16;;;;;;;65.38;20.40;;;;;;;-0.81;96.36;99916.78;3468301;28;19937;-47
2021/01/05 03:36:58;;;;;;;72.38;22.15;;;;;;;-0.81;96.27;99922.75;3468171;28;20049;-47
2021/01/05 03:38:40;;;;;;;70.38;21.10;;;;;;;-0.80;96.66;99926.16;3471116;28;20053;-47
2021/01/05 03:40:21;;;;;;;84.43;23.35;;;;;;;-0.79;96.59;99920.28;3468318;28;20052;-47
2021/01/05 03:42:04;;;;;;;83.50;23.38;;;;;;;-0.79;96.53;99917.75;3467684;28;20091;-50
2021/01/05 03:43:45;;;;;;;79.55;24.55;;;;;;;-0.80;96.80;99923.59;3470579;28;20088;-47
2021/01/05 03:45:28;;;;;;;78.72;22.25;;;;;;;-0.81;96.54;99919.31;3468464;28;20045;-47
2021/01/05 03:47:10;;;;;;;114.25;24.75;;;;;;;-0.81;96.45;99921.88;3469479;28;20049;-45
2021/01/05 03:48:53;;;;;;;75.07;20.23;;;;;;;-0.81;96.62;99925.28;3468977;28;20053;-45
2021/01/05 03:50:35;;;;;;;58.60;19.58;;;;;;;-0.81;96.62;99924.41;3468030;28;20076;-46
2021/01/05 03:52:17;;;;;;;77.65;21.33;;;;;;;-0.81;96.62;99922.75;3470431;28;20167;-47
2021/01/05 03:53:59;;;;;;;120.45;23.77;;;;;;;-0.81;96.79;99915.09;3468394;28;20529;-47
2021/01/05 03:55:41;;;;;;;68.03;19.35;;;;;;;-0.80;96.77;99915.97;3467630;28;20104;-46
2021/01/05 03:57:23;;;;;;;67.72;19.42;;;;;;;-0.79;96.51;99908.44;3470585;28;20084;-46
2021/01/05 03:59:06;;;;;;;66.88;18.73;;;;;;;-0.80;96.85;99909.22;3473318;28;20539;-45
2021/01/05 04:00:48;;;;;;;64.78;18.98;;;;;;;-0.81;96.44;99909.13;3479771;28;20053;-46
2021/01/05 04:02:30;;;;;;;60.40;19.17;;;;;;;-0.82;96.65;99912.44;3469946;28;20430;-46
2021/01/05 04:04:12;;;;;;;52.40;17.23;;;;;;;-0.83;96.74;99911.56;3467810;28;20041;-46
2021/01/05 04:05:54;;;;;;;58.60;17.40;;;;;;;-0.83;96.65;99911.56;3470206;28;20096;-45
2021/01/05 04:07:37;;;;;;;58.17;18.58;;;;;;;-0.84;96.50;99914.91;3469371;28;20049;-45
2021/01/05 04:09:18;;;;;;;60.72;17.30;;;;;;;-0.82;96.68;99909.91;3468060;28;20421;-45
2021/01/05 04:11:01;;;;;;;68.45;19.83;;;;;;;-0.83;96.72;99908.16;3470358;28;20057;-45
2021/01/05 04:12:43;;;;;;;75.43;20.50;;;;;;;-0.82;96.60;99903.13;3467796;28;20049;-46
2021/01/05 04:14:25;;;;;;;65.72;18.17;;;;;;;-0.81;96.73;99901.50;3467838;28;20410;-46
2021/01/05 04:16:07;;;;;;;67.50;18.95;;;;;;;-0.79;96.66;99897.38;3469644;28;20061;-46
2021/01/05 04:17:49;;;;;;;60.33;18.75;;;;;;;-0.78;96.71;99896.59;3468296;28;20049;-46
2021/01/05 04:19:31;;;;;;;112.70;20.10;;;;;;;-0.78;96.56;99901.69;3469731;28;20061;-47
2021/01/05 04:21:13;;;;;;;64.75;17.85;;;;;;;-0.78;96.50;99897.47;3468414;28;20528;-46
2021/01/05 04:22:55;;;;;;;55.13;16.95;;;;;;;-0.79;96.53;99898.25;3467657;28;20092;-46
2021/01/05 04:24:37;;;;;;;48.63;15.80;;;;;;;-0.80;96.75;99898.13;3470179;28;20076;-46
2021/01/05 04:26:19;;;;;;;67.95;19.23;;;;;;;-0.80;96.43;99900.69;3468694;28;20056;-45
2021/01/05 04:28:01;;;;;;;55.03;16.70;;;;;;;-0.81;96.51;99892.19;3468781;28;20072;-45
2021/01/05 04:29:42;;;;;;;55.25;19.25;;;;;;;-0.81;96.71;99897.28;3456093;28;20064;-45
2021/01/05 04:31:24;;;;;;;56.60;17.48;;;;;;;-0.80;96.70;99899.03;3463993;28;20446;-47
2021/01/05 04:33:08;;;;;;;45.85;15.93;;;;;;;-0.79;96.62;99898.25;3469213;28;20053;-45
2021/01/05 04:34:51;;;;;;;45.40;16.00;;;;;;;-0.79;96.88;99900.78;3468525;28;20045;-47
2021/01/05 04:36:33;;;;;;;47.75;15.55;;;;;;;-0.78;96.78;99904.25;3467919;28;20049;-46
2021/01/05 04:38:15;;;;;;;51.92;16.33;;;;;;;-0.78;96.46;99901.69;3469533;28;20107;-45
2021/01/05 04:39:57;;;;;;;43.90;15.18;;;;;;;-0.79;96.47;99898.25;3466766;28;20049;-46
2021/01/05 04:41:47;;;;;;;37.08;13.90;;;;;;;-0.79;96.81;99897.38;3468184;28;20050;-47
2021/01/05 04:43:46;;;;;;;39.67;13.77;;;;;;;-0.80;96.53;99893.06;3457071;28;20058;-46
2021/01/05 04:45:28;;;;;;;37.17;13.68;;;;;;;-0.82;96.41;99900.59;3467860;28;20109;-46
2021/01/05 04:47:21;;;;;;;47.72;13.13;;;;;;;-0.83;96.37;99897.97;3467470;28;20104;-45
2021/01/05 04:49:28;;;;;;;38.95;12.85;;;;;;;-0.83;96.49;99895.44;3470117;28;20111;-45
2021/01/05 04:51:20;;;;;;;43.80;14.23;;;;;;;-0.86;96.20;99885.91;3466109;28;20065;-45
2021/01/05 04:53:13;;;;;;;43.67;14.20;;;;;;;-0.84;96.62;99880.91;3468726;28;20140;-47
2021/01/05 04:55:01;;;;;;;36.80;13.57;;;;;;;-0.83;96.25;99885.25;3467951;28;20045;-46
2021/01/05 04:56:54;;;;;;;40.90;14.10;;;;;;;-0.84;96.44;99894.53;3456235;28;20061;-47
2021/01/05 04:58:41;;;;;;;36.95;13.35;;;;;;;-0.83;96.26;99901.41;3465166;28;20056;-46
2021/01/05 05:00:27;;;;;;;43.60;14.90;;;;;;;-0.83;96.32;99895.44;3465406;28;20077;-48
2021/01/05 05:02:25;;;;;;;45.75;14.45;;;;;;;-0.83;96.59;99891.22;3455333;28;20053;-47
2021/01/05 05:04:15;;;;;;;47.35;14.05;;;;;;;-0.84;96.23;99894.53;3468720;28;20054;-47
2021/01/05 05:06:15;;;;;;;38.55;13.50;;;;;;;-0.84;96.59;99886.88;3467245;28;20050;-47
2021/01/05 05:08:17;;;;;;;36.00;13.55;;;;;;;-0.83;96.77;99887.78;3459412;28;20049;-47
2021/01/05 05:10:06;;;;;;;68.15;18.10;;;;;;;-0.81;96.64;99896.41;3469461;28;20553;-46
2021/01/05 05:12:02;;;;;;;56.05;15.55;;;;;;;-0.83;96.74;99895.44;3467622;28;20050;-46
2021/01/05 05:13:53;;;;;;;36.75;12.20;;;;;;;-0.85;96.34;99890.25;3467764;28;21094;-47
2021/01/05 05:15:46;;;;;;;45.80;13.85;;;;;;;-0.85;96.52;99895.31;3469321;28;20510;-46
2021/01/05 05:17:58;;;;;;;35.80;12.80;;;;;;;-0.85;96.84;99886.78;3468544;28;20064;-46
2021/01/05 05:19:53;;;;;;;36.45;13.95;;;;;;;-0.83;96.48;99888.66;3466861;28;20053;-45
2021/01/05 05:21:44;;;;;;;44.42;13.57;;;;;;;-0.82;96.76;99889.53;3467919;28;20049;-46
2021/01/05 05:23:43;;;;;;;42.92;13.60;;;;;;;-0.82;96.83;99887.84;3469667;28;20064;-46
2021/01/05 05:25:36;;;;;;;44.83;14.82;;;;;;;-0.79;96.54;99882.09;3467535;28;20100;-46
2021/01/05 05:27:28;;;;;;;42.13;13.35;;;;;;;-0.79;96.69;99885.50;3466624;28;20056;-48
2021/01/05 05:29:20;;;;;;;43.38;14.48;;;;;;;-0.78;96.76;99884.75;3469824;28;20057;-46
2021/01/05 05:31:03;;;;;;;60.15;16.13;;;;;;;-0.78;96.85;99882.19;3468273;28;20064;-47
2021/01/05 05:32:50;;;;;;;51.28;17.15;;;;;;;-0.78;96.58;99891.50;3468085;28;20112;-46
2021/01/05 05:34:37;;;;;;;55.97;15.40;;;;;;;-0.80;96.58;99878.66;3468386;28;20077;-46
2021/01/05 05:36:35;;;;;;;40.83;12.65;;;;;;;-0.80;96.86;99883.75;3468730;28;20525;-47
2021/01/05 05:38:36;;;;;;;41.30;14.63;;;;;;;-0.81;96.70;99871.81;3467149;28;20056;-46
2021/01/05 05:40:26;;;;;;;37.97;13.80;;;;;;;-0.80;96.59;99878.66;3466801;28;20072;-46
2021/01/05 05:42:24;;;;;;;58.72;15.68;;;;;;;-0.80;96.88;99875.22;3467777;28;20042;-46
2021/01/05 05:44:19;;;;;;;63.25;15.60;;;;;;;-0.80;96.60;99878.66;3468537;28;20045;-46
2021/01/05 05:46:05;;;;;;;60.92;15.93;;;;;;;-0.81;96.63;99871.81;3466839;28;20072;-46
2021/01/05 05:47:55;;;;;;;67.47;18.02;;;;;;;-0.80;96.61;99881.22;3467799;28;20057;-46
2021/01/05 05:49:49;;;;;;;44.20;14.18;;;;;;;-0.80;96.86;99886.31;3468725;28;20053;-46
2021/01/05 05:51:36;;;;;;;58.50;15.32;;;;;;;-0.80;96.79;99873.56;3466970;28;20053;-46
2021/01/05 05:53:22;;;;;;;44.75;15.38;;;;;;;-0.79;96.71;99869.34;3468515;28;20053;-47
2021/01/05 05:55:19;;;;;;;53.97;14.82;;;;;;;-0.79;96.94;99865.13;3468838;28;20130;-47
2021/01/05 05:57:21;;;;;;;75.55;17.08;;;;;;;-0.78;96.94;99868.59;3467096;28;20084;-47
2021/01/05 05:59:04;;;;;;;54.28;14.07;;;;;;;-0.79;97.11;99865.13;3467395;28;20042;-46
2021/01/05 06:00:49;;;;;;;95.28;16.85;;;;;;;-0.81;97.03;99871.81;3468756;28;20053;-46
2021/01/05 06:02:31;;;;;;;46.53;15.05;;;;;;;-0.80;96.86;99863.38;3466813;28;20046;-45
2021/01/05 06:04:13;;;;;;;59.72;16.75;;;;;;;-0.82;97.03;99864.06;3467043;28;20049;-45
2021/01/05 06:05:55;;;;;;;52.20;15.75;;;;;;;-0.82;96.96;99856.41;3468975;28;20087;-45
2021/01/05 06:07:36;;;;;;;61.55;15.95;;;;;;;-0.84;96.88;99858.88;3467028;28;20064;-46
2021/01/05 06:09:18;;;;;;;77.38;14.43;;;;;;;-0.82;97.12;99864.06;3468194;28;20053;-46
2021/01/05 06:11:00;;;;;;;46.17;14.95;;;;;;;-0.83;97.09;99869.97;3467093;28;20777;-46
2021/01/05 06:12:41;;;;;;;62.75;15.10;;;;;;;-0.83;96.75;99859.78;3466563;28;20049;-46
2021/01/05 06:14:23;;;;;;;58.53;16.50;;;;;;;-0.83;97.10;99862.31;3468875;28;20053;-46
2021/01/05 06:16:04;;;;;;;48.15;14.60;;;;;;;-0.83;96.94;99857.22;3466214;28;20534;-46
2021/01/05 06:17:47;;;;;;;37.55;13.20;;;;;;;-0.83;97.22;99849.59;3466478;28;20061;-46
2021/01/05 06:19:28;;;;;;;49.50;14.68;;;;;;;-0.83;96.86;99855.56;3468395;28;20088;-46
2021/01/05 06:21:09;;;;;;;53.00;17.08;;;;;;;-0.82;97.13;99848.78;3466777;28;20061;-46
2021/01/05 06:22:51;;;;;;;44.60;14.93;;;;;;;-0.82;97.23;99853.88;3467134;28;20049;-48
2021/01/05 06:24:32;;;;;;;49.88;14.63;;;;;;;-0.81;97.20;99840.38;3468565;28;20049;-47
2021/01/05 06:26:16;;;;;;;44.95;14.80;;;;;;;-0.80;97.15;99845.56;3466664;28;20053;-46
2021/01/05 06:27:58;;;;;;;49.88;15.65;;;;;;;-0.79;97.19;99849.84;3467874;28;20050;-46
2021/01/05 06:29:39;;;;;;;56.20;15.35;;;;;;;-0.78;96.95;99851.63;3467562;28;20046;-46
2021/01/05 06:31:21;;;;;;;60.30;17.13;;;;;;;-0.78;97.23;99851.63;3467618;28;20057;-47
2021/01/05 06:33:02;;;;;;;62.22;17.75;;;;;;;-0.78;97.24;99850.75;3470946;28;20089;-47
2021/01/05 06:34:44;;;;;;;47.05;16.17;;;;;;;-0.76;97.10;99856.81;3468878;28;20052;-47
2021/01/05 06:36:26;;;;;;;60.70;15.82;;;;;;;-0.77;97.28;99861.00;3468749;28;20072;-47
2021/01/05 06:38:08;;;;;;;53.22;15.60;;;;;;;-0.75;96.90;99856.00;3457745;28;20054;-47
2021/01/05 06:39:49;;;;;;;53.50;15.57;;;;;;;-0.74;96.90;99855.25;3465609;28;20065;-47
2021/01/05 06:41:31;;;;;;;57.47;17.65;;;;;;;-0.74;97.16;99861.22;3469629;28;20049;-47
2021/01/05 06:43:12;;;;;;;50.50;16.58;;;;;;;-0.75;97.20;99851.81;3469206;28;20045;-46
2021/01/05 06:44:54;;;;;;;49.90;16.13;;;;;;;-0.75;96.98;99862.00;3469476;28;20052;-47
2021/01/05 06:46:35;;;;;;;62.40;18.23;;;;;;;-0.74;97.13;99862.88;3470730;28;20049;-46
2021/01/05 06:48:17;;;;;;;47.90;15.35;;;;;;;-0.74;96.93;99860.34;3468586;28;20495;-47
2021/01/05 06:49:58;;;;;;;74.93;18.23;;;;;;;-0.74;97.30;99860.34;3468523;28;20069;-47
2021/01/05 06:51:39;;;;;;;52.20;16.48;;;;;;;-0.74;97.06;99858.66;3470836;28;20058;-46
2021/01/05 06:53:21;;;;;;;48.35;15.75;;;;;;;-0.74;97.27;99863.75;3468814;28;20090;-47
2021/01/05 06:55:04;;;;;;;47.78;16.23;;;;;;;-0.75;96.98;99864.56;3469540;28;20140;-48
2021/01/05 06:56:51;;;;;;;48.72;16.50;;;;;;;-0.74;97.22;99868.84;3469612;28;20399;-47
2021/01/05 06:58:32;;;;;;;56.05;17.70;;;;;;;-0.74;97.25;99871.41;3468711;28;20457;-47
2021/01/05 07:00:17;;;;;;;44.47;15.25;;;;;;;-0.74;97.24;99873.94;3470476;28;20057;-48
2021/01/05 07:02:00;;;;;;;47.80;14.55;;;;;;;-0.75;97.22;99869.66;3468925;28;20056;-47
2021/01/05 07:03:42;;;;;;;60.40;17.33;;;;;;;-0.74;97.15;99873.06;3468982;28;20095;-46
2021/01/05 07:05:24;;;;;;;56.60;17.23;;;;;;;-0.74;97.04;99868.84;3470643;28;20049;-46
2021/01/05 07:07:06;;;;;;;53.55;16.13;;;;;;;-0.73;97.31;99875.72;3469299;28;20049;-46
2021/01/05 07:08:47;;;;;;;53.10;17.50;;;;;;;-0.74;96.97;99879.03;3468896;28;20092;-47
2021/01/05 07:10:29;;;;;;;41.55;14.95;;;;;;;-0.74;97.35;99881.59;3470988;28;20183;-46
2021/01/05 07:12:11;;;;;;;57.63;18.15;;;;;;;-0.71;97.26;99873.25;3468453;28;20556;-47
2021/01/05 07:13:52;;;;;;;54.10;16.88;;;;;;;-0.73;97.12;99880.81;3469566;28;20065;-46
2021/01/05 07:15:34;;;;;;;59.92;17.85;;;;;;;-0.73;96.96;99877.34;3469144;28;20050;-47
2021/01/05 07:17:15;;;;;;;45.63;15.77;;;;;;;-0.73;97.00;99869.72;3468122;28;20533;-47
2021/01/05 07:18:57;;;;;;;51.38;17.75;;;;;;;-0.70;97.26;99869.03;3470651;28;20399;-46
2021/01/05 07:20:39;;;;;;;54.47;18.98;;;;;;;-0.71;97.38;99873.25;3467900;28;20135;-46
2021/01/05 07:22:21;;;;;;;55.80;17.55;;;;;;;-0.70;96.90;99862.28;3469687;28;20052;-46
2021/01/05 07:24:20;;;;;;;60.70;17.80;;;;;;;-0.70;96.88;99864.81;3470412;28;20049;-46
2021/01/05 07:26:02;;;;;;;47.92;16.15;;;;;;;-0.69;96.98;99864.03;3469012;28;20084;-47
2021/01/05 07:27:44;;;;;;;55.33;17.10;;;;;;;-0.68;97.07;99859.81;3468346;28;20498;-45
2021/01/05 07:29:25;;;;;;;59.05;17.67;;;;;;;-0.67;97.21;99861.59;3470173;28;20057;-45
2021/01/05 07:31:07;;;;;;;53.30;16.67;;;;;;;-0.68;97.07;99863.25;3468798;28;20049;-44
2021/01/05 07:32:48;;;;;;;56.75;18.67;;;;;;;-0.68;97.01;99857.28;3468500;28;20080;-46
2021/01/05 07:34:31;;;;;;;49.08;17.02;;;;;;;-0.68;97.13;99859.81;3470308;28;20057;-47
2021/01/05 07:36:23;;;;;;;62.20;18.20;;;;;;;-0.68;96.79;99862.38;3468119;28;20087;-46
2021/01/05 07:38:05;;;;;;;48.95;16.88;;;;;;;-0.67;97.03;99861.59;3468550;28;20041;-47
2021/01/05 07:39:46;;;;;;;52.67;16.70;;;;;;;-0.67;97.06;99867.56;3470602;28;20403;-47
2021/01/05 07:41:28;;;;;;;53.67;17.80;;;;;;;-0.67;97.19;99867.56;3467598;28;20045;-47
2021/01/05 07:43:10;;;;;;;56.10;17.15;;;;;;;-0.66;96.98;99878.63;3468456;28;20057;-46
2021/01/05 07:44:54;;;;;;;48.00;16.92;;;;;;;-0.66;97.23;99874.44;3468787;28;20140;-46
2021/01/05 07:46:36;;;;;;;50.67;17.48;;;;;;;-0.66;97.23;99869.34;3467863;28;20045;-48
2021/01/05 07:48:18;;;;;;;50.72;18.40;;;;;;;-0.65;96.93;99871.06;3470220;28;20054;-46
2021/01/05 07:50:00;;;;;;;45.47;16.48;;;;;;;-0.63;97.31;99871.19;3467753;28;20061;-46
2021/01/05 07:51:47;;;;;;;57.85;18.02;;;;;;;-0.63;97.27;99866.09;3468625;28;20057;-47
2021/01/05 07:53:30;;;;;;;57.83;19.95;;;;;;;-0.62;96.96;99865.31;3456740;28;20065;-46
2021/01/05 07:55:14;;;;;;;60.60;19.63;;;;;;;-0.61;96.96;99880.66;3465193;28;20537;-47
2021/01/05 07:56:59;;;;;;;57.05;18.33;;;;;;;-0.60;96.81;99879.88;3468553;28;20049;-47
2021/01/05 07:58:47;;;;;;;64.80;20.85;;;;;;;-0.57;96.88;99881.72;3470955;28;20081;-47
2021/01/05 08:00:29;;;;;;;63.58;20.73;;;;;;;-0.56;97.18;99879.28;3468045;28;20076;-45
2021/01/05 08:02:11;;;;;;;53.60;18.17;;;;;;;-0.55;97.06;99872.53;3469584;28;20053;-46
2021/01/05 08:03:52;;;;;;;59.65;19.67;;;;;;;-0.55;96.82;99870.00;3468927;28;20407;-47
2021/01/05 08:05:33;;;;;;;55.15;19.15;;;;;;;-0.56;96.83;99858.91;3468291;28;20422;-47
2021/01/05 08:07:15;;;;;;;48.92;18.42;;;;;;;-0.54;96.68;99869.19;3470076;28;20053;-47
2021/01/05 08:08:59;;;;;;;60.45;21.40;;;;;;;-0.55;96.97;99857.25;3468727;28;20053;-47
2021/01/05 08:10:41;;;;;;;56.05;19.50;;;;;;;-0.55;96.71;99864.91;3467897;28;20053;-46
2021/01/05 08:12:22;;;;;;;66.38;20.65;;;;;;;-0.56;96.94;99864.00;3469730;28;20057;-46